createdAt,value
2018-01-27T00:00:17.004Z,1020.48
2018-01-27T00:01:17.023Z,1020.47
2018-01-27T00:02:17.041Z,1020.44
2018-01-27T00:03:17.059Z,1020.50
2018-01-27T00:04:17.074Z,1020.51
2018-01-27T00:05:17.092Z,1020.53
2018-01-27T00:06:17.110Z,1020.54
2018-01-27T00:07:17.128Z,1020.57
2018-01-27T00:08:17.146Z,1020.60
2018-01-27T00:09:17.165Z,1020.62
2018-01-27T00:10:17.182Z,1020.62
2018-01-27T00:11:17.200Z,1020.65
2018-01-27T00:12:17.217Z,1020.67
2018-01-27T00:13:17.234Z,1020.68
2018-01-27T00:14:17.252Z,1020.68
2018-01-27T00:15:17.283Z,1020.70
2018-01-27T00:16:17.287Z,1020.64
2018-01-27T00:17:17.306Z,1020.65
2018-01-27T00:18:17.324Z,1020.65
2018-01-27T00:19:17.341Z,1020.68
2018-01-27T00:20:17.359Z,1020.67
2018-01-27T00:21:17.394Z,1020.63
2018-01-27T00:22:17.395Z,1020.65
2018-01-27T00:23:17.413Z,1020.63
2018-01-27T00:24:17.430Z,1020.62
2018-01-27T00:25:17.448Z,1020.61
2018-01-27T00:26:17.467Z,1020.62
2018-01-27T00:27:17.484Z,1020.60
2018-01-27T00:28:17.501Z,1020.58
2018-01-27T00:29:17.520Z,1020.57
2018-01-27T00:30:17.537Z,1020.55
2018-01-27T00:31:17.556Z,1020.50
2018-01-27T00:32:17.572Z,1020.53
2018-01-27T00:33:17.596Z,1020.54
2018-01-27T00:34:17.609Z,1020.52
2018-01-27T00:35:17.627Z,1020.59
2018-01-27T00:36:17.645Z,1020.56
2018-01-27T00:37:17.661Z,1020.58
2018-01-27T00:38:17.680Z,1020.58
2018-01-27T00:39:17.698Z,1020.57
2018-01-27T00:40:17.715Z,1020.61
2018-01-27T00:41:17.733Z,1020.65
2018-01-27T00:42:18.053Z,1020.63
2018-01-27T00:43:17.769Z,1020.63
2018-01-27T00:44:17.787Z,1020.62
2018-01-27T00:45:17.805Z,1020.66
2018-01-27T00:46:17.822Z,1020.64
2018-01-27T00:47:17.844Z,1020.65
2018-01-27T00:48:17.857Z,1020.68
2018-01-27T00:49:17.882Z,1020.65
2018-01-27T00:50:17.894Z,1020.61
2018-01-27T00:51:17.912Z,1020.63
2018-01-27T00:52:17.929Z,1020.58
2018-01-27T00:53:17.947Z,1020.59
2018-01-27T00:54:17.965Z,1020.63
2018-01-27T00:55:18.133Z,1020.66
2018-01-27T00:56:18.000Z,1020.63
2018-01-27T00:57:18.018Z,1020.64
2018-01-27T00:58:18.036Z,1020.65
2018-01-27T00:59:18.053Z,1020.62
2018-01-27T01:00:18.071Z,1020.62
2018-01-27T01:01:18.239Z,1020.63
2018-01-27T01:02:18.107Z,1020.61
2018-01-27T01:03:18.125Z,1020.62
2018-01-27T01:04:18.142Z,1020.59
2018-01-27T01:05:18.160Z,1020.62
2018-01-27T01:06:18.182Z,1020.58
2018-01-27T01:07:18.196Z,1020.59
2018-01-27T01:08:18.213Z,1020.64
2018-01-27T01:09:18.230Z,1020.62
2018-01-27T01:10:18.248Z,1020.66
2018-01-27T01:11:18.283Z,1020.68
2018-01-27T01:12:18.283Z,1020.70
2018-01-27T01:13:18.301Z,1020.70
2018-01-27T01:14:18.318Z,1020.72
2018-01-27T01:15:18.337Z,1020.71
2018-01-27T01:16:18.354Z,1020.71
2018-01-27T01:17:18.371Z,1020.70
2018-01-27T01:18:18.389Z,1020.74
2018-01-27T01:19:18.407Z,1020.76
2018-01-27T01:20:18.424Z,1020.77
2018-01-27T01:21:18.442Z,1020.79
2018-01-27T01:22:18.460Z,1020.80
2018-01-27T01:23:18.477Z,1020.85
2018-01-27T01:24:18.494Z,1020.83
2018-01-27T01:25:18.512Z,1020.90
2018-01-27T01:26:18.529Z,1020.87
2018-01-27T01:27:18.550Z,1020.89
2018-01-27T01:28:18.564Z,1020.93
2018-01-27T01:29:18.582Z,1020.90
2018-01-27T01:30:18.600Z,1020.91
2018-01-27T01:31:18.618Z,1020.93
2018-01-27T01:32:18.784Z,1020.95
2018-01-27T01:33:18.653Z,1020.92
2018-01-27T01:34:18.670Z,1020.95
2018-01-27T01:35:18.688Z,1020.94
2018-01-27T01:36:18.705Z,1020.94
2018-01-27T01:37:18.729Z,1020.99
2018-01-27T01:38:18.740Z,1020.98
2018-01-27T01:39:18.758Z,1021.00
2018-01-27T01:40:18.776Z,1020.95
2018-01-27T01:41:18.796Z,1021.00
2018-01-27T01:42:18.812Z,1020.99
2018-01-27T01:43:18.829Z,1021.03
2018-01-27T01:44:18.846Z,1021.04
2018-01-27T01:45:18.863Z,1021.07
2018-01-27T01:46:18.881Z,1021.11
2018-01-27T01:47:18.899Z,1021.08
2018-01-27T01:48:18.916Z,1021.07
2018-01-27T01:49:18.933Z,1021.07
2018-01-27T01:50:18.952Z,1021.04
2018-01-27T01:51:18.969Z,1021.04
2018-01-27T01:52:18.986Z,1021.03
2018-01-27T01:53:19.004Z,1021.01
2018-01-27T01:54:19.021Z,1021.02
2018-01-27T01:55:19.039Z,1020.99
2018-01-27T01:56:19.099Z,1020.97
2018-01-27T01:57:19.074Z,1020.94
2018-01-27T01:58:19.092Z,1020.95
2018-01-27T01:59:19.110Z,1020.98
2018-01-27T02:00:19.128Z,1021.00
2018-01-27T02:01:19.145Z,1021.01
2018-01-27T02:02:19.313Z,1021.00
2018-01-27T02:03:19.181Z,1021.01
2018-01-27T02:04:19.200Z,1021.02
2018-01-27T02:05:19.215Z,1021.03
2018-01-27T02:06:19.234Z,1021.03
2018-01-27T02:07:19.252Z,1021.04
2018-01-27T02:08:19.268Z,1021.04
2018-01-27T02:09:19.285Z,1021.00
2018-01-27T02:10:19.304Z,1021.00
2018-01-27T02:11:19.322Z,1021.04
2018-01-27T02:12:19.340Z,1021.04
2018-01-27T02:13:19.357Z,1021.04
2018-01-27T02:14:19.373Z,1021.08
2018-01-27T02:15:19.392Z,1021.04
2018-01-27T02:16:19.408Z,1021.08
2018-01-27T02:17:19.426Z,1021.09
2018-01-27T02:18:19.444Z,1021.08
2018-01-27T02:19:19.462Z,1021.11
2018-01-27T02:20:19.479Z,1021.10
2018-01-27T02:21:19.497Z,1021.13
2018-01-27T02:22:19.515Z,1021.11
2018-01-27T02:23:19.533Z,1021.12
2018-01-27T02:24:19.549Z,1021.11
2018-01-27T02:25:19.567Z,1021.13
2018-01-27T02:26:19.588Z,1021.14
2018-01-27T02:27:19.602Z,1021.12
2018-01-27T02:28:19.618Z,1021.12
2018-01-27T02:29:19.637Z,1021.14
2018-01-27T02:30:19.655Z,1021.14
2018-01-27T02:31:19.673Z,1021.13
2018-01-27T02:32:19.690Z,1021.11
2018-01-27T02:33:19.707Z,1021.13
2018-01-27T02:34:19.726Z,1021.10
2018-01-27T02:35:19.742Z,1021.14
2018-01-27T02:36:19.760Z,1021.16
2018-01-27T02:37:19.777Z,1021.13
2018-01-27T02:38:19.794Z,1021.13
2018-01-27T02:39:19.813Z,1021.18
2018-01-27T02:40:19.829Z,1021.12
2018-01-27T02:41:19.847Z,1021.17
2018-01-27T02:42:19.867Z,1021.16
2018-01-27T02:43:19.902Z,1021.17
2018-01-27T02:44:19.900Z,1021.18
2018-01-27T02:45:19.917Z,1021.19
2018-01-27T02:46:19.935Z,1021.18
2018-01-27T02:47:19.952Z,1021.17
2018-01-27T02:48:19.969Z,1021.18
2018-01-27T02:49:19.987Z,1021.20
2018-01-27T02:50:20.005Z,1021.21
2018-01-27T02:51:20.022Z,1021.19
2018-01-27T02:52:20.189Z,1021.19
2018-01-27T02:53:20.056Z,1021.17
2018-01-27T02:54:20.074Z,1021.22
2018-01-27T02:55:20.092Z,1021.19
2018-01-27T02:56:20.108Z,1021.26
2018-01-27T02:57:20.127Z,1021.23
2018-01-27T02:58:20.143Z,1021.17
2018-01-27T02:59:20.161Z,1021.14
2018-01-27T03:00:20.177Z,1021.12
2018-01-27T03:01:20.195Z,1021.20
2018-01-27T03:02:20.215Z,1021.12
2018-01-27T03:03:20.231Z,1021.18
2018-01-27T03:04:20.247Z,1021.13
2018-01-27T03:05:20.265Z,1021.23
2018-01-27T03:06:20.432Z,1021.21
2018-01-27T03:07:20.300Z,1021.23
2018-01-27T03:08:20.316Z,1021.19
2018-01-27T03:09:20.334Z,1021.22
2018-01-27T03:10:20.352Z,1021.17
2018-01-27T03:11:20.369Z,1021.16
2018-01-27T03:12:20.386Z,1021.20
2018-01-27T03:13:20.404Z,1021.20
2018-01-27T03:14:20.421Z,1021.21
2018-01-27T03:15:20.589Z,1021.21
2018-01-27T03:16:20.455Z,1021.20
2018-01-27T03:17:20.475Z,1021.29
2018-01-27T03:18:20.491Z,1021.29
2018-01-27T03:19:20.508Z,1021.31
2018-01-27T03:20:20.527Z,1021.36
2018-01-27T03:21:20.543Z,1021.34
2018-01-27T03:22:20.561Z,1021.38
2018-01-27T03:23:20.578Z,1021.40
2018-01-27T03:24:20.595Z,1021.37
2018-01-27T03:25:20.611Z,1021.41
2018-01-27T03:26:20.631Z,1021.41
2018-01-27T03:27:20.648Z,1021.41
2018-01-27T03:28:20.664Z,1021.43
2018-01-27T03:29:20.682Z,1021.47
2018-01-27T03:30:20.700Z,1021.45
2018-01-27T03:31:20.725Z,1021.48
2018-01-27T03:32:20.733Z,1021.45
2018-01-27T03:33:20.751Z,1021.46
2018-01-27T03:34:20.769Z,1021.45
2018-01-27T03:35:20.786Z,1021.47
2018-01-27T03:36:20.803Z,1021.52
2018-01-27T03:37:20.820Z,1021.49
2018-01-27T03:38:20.841Z,1021.50
2018-01-27T03:39:20.856Z,1021.51
2018-01-27T03:40:20.872Z,1021.52
2018-01-27T03:41:20.889Z,1021.53
2018-01-27T03:42:20.907Z,1021.56
2018-01-27T03:43:20.925Z,1021.51
2018-01-27T03:44:20.944Z,1021.54
2018-01-27T03:45:20.958Z,1021.54
2018-01-27T03:46:20.977Z,1021.56
2018-01-27T03:47:20.997Z,1021.61
2018-01-27T03:48:21.010Z,1021.57
2018-01-27T03:49:21.028Z,1021.57
2018-01-27T03:50:21.046Z,1021.61
2018-01-27T03:51:21.063Z,1021.61
2018-01-27T03:52:21.080Z,1021.58
2018-01-27T03:53:21.097Z,1021.61
2018-01-27T03:54:21.113Z,1021.62
2018-01-27T03:55:21.133Z,1021.59
2018-01-27T03:56:21.149Z,1021.64
2018-01-27T03:57:21.166Z,1021.68
2018-01-27T03:58:21.184Z,1021.67
2018-01-27T03:59:21.201Z,1021.66
2018-01-27T04:00:21.217Z,1021.69
2018-01-27T04:01:21.235Z,1021.72
2018-01-27T04:02:21.253Z,1021.74
2018-01-27T04:03:21.270Z,1021.76
2018-01-27T04:04:21.287Z,1021.76
2018-01-27T04:05:21.305Z,1021.80
2018-01-27T04:06:21.322Z,1021.87
2018-01-27T04:07:21.339Z,1021.89
2018-01-27T04:08:21.355Z,1021.90
2018-01-27T04:09:21.373Z,1021.91
2018-01-27T04:10:21.390Z,1021.90
2018-01-27T04:11:21.409Z,1021.96
2018-01-27T04:12:21.423Z,1021.93
2018-01-27T04:13:21.443Z,1021.97
2018-01-27T04:14:21.458Z,1021.92
2018-01-27T04:15:21.476Z,1021.91
2018-01-27T04:16:21.492Z,1021.89
2018-01-27T04:17:21.509Z,1021.91
2018-01-27T04:18:21.526Z,1021.92
2018-01-27T04:19:21.544Z,1021.97
2018-01-27T04:20:21.560Z,1021.99
2018-01-27T04:21:21.577Z,1021.98
2018-01-27T04:22:21.598Z,1021.97
2018-01-27T04:23:21.612Z,1022.02
2018-01-27T04:24:21.628Z,1021.99
2018-01-27T04:25:21.645Z,1021.96
2018-01-27T04:26:21.666Z,1021.99
2018-01-27T04:27:21.679Z,1021.98
2018-01-27T04:28:21.846Z,1022.04
2018-01-27T04:29:21.713Z,1022.05
2018-01-27T04:30:21.730Z,1022.06
2018-01-27T04:31:21.747Z,1022.09
2018-01-27T04:32:21.763Z,1022.08
2018-01-27T04:33:21.782Z,1022.17
2018-01-27T04:34:21.798Z,1022.18
2018-01-27T04:35:21.814Z,1022.20
2018-01-27T04:36:21.830Z,1022.21
2018-01-27T04:37:21.848Z,1022.22
2018-01-27T04:38:21.866Z,1022.25
2018-01-27T04:39:21.883Z,1022.25
2018-01-27T04:40:21.898Z,1022.22
2018-01-27T04:41:21.916Z,1022.27
2018-01-27T04:42:21.932Z,1022.26
2018-01-27T04:43:21.950Z,1022.25
2018-01-27T04:44:21.966Z,1022.31
2018-01-27T04:45:21.983Z,1022.32
2018-01-27T04:46:21.999Z,1022.29
2018-01-27T04:47:22.017Z,1022.30
2018-01-27T04:48:22.032Z,1022.30
2018-01-27T04:49:22.050Z,1022.38
2018-01-27T04:50:22.067Z,1022.38
2018-01-27T04:51:22.087Z,1022.41
2018-01-27T04:52:22.102Z,1022.45
2018-01-27T04:53:22.117Z,1022.45
2018-01-27T04:54:22.134Z,1022.50
2018-01-27T04:55:22.151Z,1022.46
2018-01-27T04:56:22.167Z,1022.47
2018-01-27T04:57:22.335Z,1022.49
2018-01-27T04:58:22.201Z,1022.50
2018-01-27T04:59:22.218Z,1022.50
2018-01-27T05:00:22.234Z,1022.51
2018-01-27T05:01:22.251Z,1022.51
2018-01-27T05:02:22.268Z,1022.50
2018-01-27T05:03:22.287Z,1022.56
2018-01-27T05:04:22.301Z,1022.46
2018-01-27T05:05:22.318Z,1022.50
2018-01-27T05:06:22.335Z,1022.53
2018-01-27T05:07:22.353Z,1022.53
2018-01-27T05:08:22.369Z,1022.57
2018-01-27T05:09:22.385Z,1022.57
2018-01-27T05:10:22.402Z,1022.62
2018-01-27T05:11:22.418Z,1022.65
2018-01-27T05:12:22.434Z,1022.70
2018-01-27T05:13:22.452Z,1022.70
2018-01-27T05:14:22.472Z,1022.68
2018-01-27T05:15:22.486Z,1022.68
2018-01-27T05:16:22.503Z,1022.68
2018-01-27T05:17:22.519Z,1022.69
2018-01-27T05:18:22.542Z,1022.67
2018-01-27T05:19:22.556Z,1022.73
2018-01-27T05:20:22.572Z,1022.76
2018-01-27T05:21:22.587Z,1022.78
2018-01-27T05:22:22.604Z,1022.79
2018-01-27T05:23:22.621Z,1022.85
2018-01-27T05:24:22.682Z,1022.91
2018-01-27T05:25:22.655Z,1022.92
2018-01-27T05:26:22.671Z,1022.95
2018-01-27T05:27:22.688Z,1022.98
2018-01-27T05:28:22.704Z,1023.00
2018-01-27T05:29:22.721Z,1023.04
2018-01-27T05:30:22.739Z,1023.07
2018-01-27T05:31:22.759Z,1023.05
2018-01-27T05:32:22.772Z,1023.08
2018-01-27T05:33:22.793Z,1023.09
2018-01-27T05:34:22.806Z,1023.07
2018-01-27T05:35:22.823Z,1023.06
2018-01-27T05:36:22.840Z,1023.06
2018-01-27T05:37:22.857Z,1023.07
2018-01-27T05:38:23.024Z,1023.07
2018-01-27T05:39:22.891Z,1023.05
2018-01-27T05:40:22.907Z,1023.04
2018-01-27T05:41:22.925Z,1023.04
2018-01-27T05:42:22.942Z,1023.10
2018-01-27T05:43:22.959Z,1023.12
2018-01-27T05:44:22.978Z,1023.08
2018-01-27T05:45:22.992Z,1023.13
2018-01-27T05:46:23.010Z,1023.10
2018-01-27T05:47:23.026Z,1023.11
2018-01-27T05:48:23.043Z,1023.09
2018-01-27T05:49:23.061Z,1023.11
2018-01-27T05:50:23.077Z,1023.12
2018-01-27T05:51:23.094Z,1023.18
2018-01-27T05:52:23.110Z,1023.17
2018-01-27T05:53:23.128Z,1023.18
2018-01-27T05:54:23.145Z,1023.21
2018-01-27T05:55:23.163Z,1023.23
2018-01-27T05:56:23.178Z,1023.22
2018-01-27T05:57:23.197Z,1023.19
2018-01-27T05:58:23.213Z,1023.16
2018-01-27T05:59:23.230Z,1023.17
2018-01-27T06:00:23.247Z,1023.14
2018-01-27T06:01:23.264Z,1023.14
2018-01-27T06:02:23.281Z,1023.15
2018-01-27T06:03:23.298Z,1023.13
2018-01-27T06:04:23.314Z,1023.20
2018-01-27T06:05:23.332Z,1023.22
2018-01-27T06:06:23.349Z,1023.24
2018-01-27T06:07:23.366Z,1023.27
2018-01-27T06:08:23.383Z,1023.24
2018-01-27T06:09:23.400Z,1023.26
2018-01-27T06:10:23.418Z,1023.26
2018-01-27T06:11:23.434Z,1023.22
2018-01-27T06:12:23.451Z,1023.24
2018-01-27T06:13:23.468Z,1023.23
2018-01-27T06:14:23.485Z,1023.25
2018-01-27T06:15:23.503Z,1023.26
2018-01-27T06:16:23.519Z,1023.23
2018-01-27T06:17:23.537Z,1023.28
2018-01-27T06:18:23.705Z,1023.24
2018-01-27T06:19:23.571Z,1023.26
2018-01-27T06:20:23.587Z,1023.22
2018-01-27T06:21:23.608Z,1023.28
2018-01-27T06:22:23.622Z,1023.28
2018-01-27T06:23:23.640Z,1023.28
2018-01-27T06:24:23.656Z,1023.27
2018-01-27T06:25:23.673Z,1023.24
2018-01-27T06:26:23.691Z,1023.26
2018-01-27T06:27:23.708Z,1023.30
2018-01-27T06:28:23.724Z,1023.31
2018-01-27T06:29:23.742Z,1023.29
2018-01-27T06:30:23.759Z,1023.33
2018-01-27T06:31:23.777Z,1023.33
2018-01-27T06:32:23.793Z,1023.35
2018-01-27T06:33:23.811Z,1023.37
2018-01-27T06:34:23.828Z,1023.43
2018-01-27T06:35:23.846Z,1023.40
2018-01-27T06:36:23.862Z,1023.44
2018-01-27T06:37:23.879Z,1023.41
2018-01-27T06:38:23.897Z,1023.42
2018-01-27T06:39:23.913Z,1023.44
2018-01-27T06:40:23.931Z,1023.42
2018-01-27T06:41:23.949Z,1023.49
2018-01-27T06:42:23.966Z,1023.53
2018-01-27T06:43:23.983Z,1023.52
2018-01-27T06:44:24.000Z,1023.58
2018-01-27T06:45:24.017Z,1023.61
2018-01-27T06:46:24.035Z,1023.67
2018-01-27T06:47:24.052Z,1023.66
2018-01-27T06:48:24.069Z,1023.66
2018-01-27T06:49:24.086Z,1023.70
2018-01-27T06:50:24.104Z,1023.67
2018-01-27T06:51:24.121Z,1023.70
2018-01-27T06:52:24.137Z,1023.70
2018-01-27T06:53:24.154Z,1023.69
2018-01-27T06:54:24.171Z,1023.67
2018-01-27T06:55:24.190Z,1023.70
2018-01-27T06:56:24.206Z,1023.65
2018-01-27T06:57:24.223Z,1023.66
2018-01-27T06:58:24.241Z,1023.66
2018-01-27T06:59:24.258Z,1023.62
2018-01-27T07:00:24.275Z,1023.59
2018-01-27T07:01:24.293Z,1023.66
2018-01-27T07:02:24.310Z,1023.69
2018-01-27T07:03:24.327Z,1023.68
2018-01-27T07:04:24.343Z,1023.77
2018-01-27T07:05:24.361Z,1023.79
2018-01-27T07:06:24.378Z,1023.80
2018-01-27T07:07:24.396Z,1023.83
2018-01-27T07:08:24.411Z,1023.85
2018-01-27T07:09:24.429Z,1023.85
2018-01-27T07:10:24.447Z,1023.86
2018-01-27T07:11:24.464Z,1023.89
2018-01-27T07:12:24.482Z,1023.91
2018-01-27T07:13:24.497Z,1023.89
2018-01-27T07:14:24.519Z,1023.91
2018-01-27T07:15:24.535Z,1023.95
2018-01-27T07:16:24.550Z,1023.90
2018-01-27T07:17:24.567Z,1023.92
2018-01-27T07:18:24.585Z,1023.92
2018-01-27T07:19:24.602Z,1023.94
2018-01-27T07:20:24.618Z,1023.89
2018-01-27T07:21:24.636Z,1023.92
2018-01-27T07:22:24.653Z,1023.89
2018-01-27T07:23:24.674Z,1023.85
2018-01-27T07:24:24.688Z,1023.85
2018-01-27T07:25:24.715Z,1023.88
2018-01-27T07:26:24.723Z,1023.90
2018-01-27T07:27:24.741Z,1023.96
2018-01-27T07:28:24.756Z,1024.01
2018-01-27T07:29:24.774Z,1023.98
2018-01-27T07:30:24.792Z,1024.01
2018-01-27T07:31:24.809Z,1024.00
2018-01-27T07:32:24.825Z,1024.01
2018-01-27T07:33:24.842Z,1024.06
2018-01-27T07:34:24.860Z,1024.07
2018-01-27T07:35:24.880Z,1024.09
2018-01-27T07:36:24.894Z,1024.05
2018-01-27T07:37:24.912Z,1024.10
2018-01-27T07:38:24.929Z,1024.07
2018-01-27T07:39:24.949Z,1024.04
2018-01-27T07:40:24.963Z,1024.03
2018-01-27T07:41:24.981Z,1024.04
2018-01-27T07:42:24.998Z,1024.05
2018-01-27T07:43:25.016Z,1024.07
2018-01-27T07:44:25.033Z,1024.06
2018-01-27T07:45:25.050Z,1024.09
2018-01-27T07:46:25.068Z,1024.09
2018-01-27T07:47:25.088Z,1024.11
2018-01-27T07:48:25.102Z,1024.10
2018-01-27T07:49:25.119Z,1024.15
2018-01-27T07:50:25.137Z,1024.17
2018-01-27T07:51:25.155Z,1024.21
2018-01-27T07:52:25.171Z,1024.24
2018-01-27T07:53:25.189Z,1024.21
2018-01-27T07:54:25.206Z,1024.19
2018-01-27T07:55:25.224Z,1024.18
2018-01-27T07:56:25.240Z,1024.20
2018-01-27T07:57:25.262Z,1024.18
2018-01-27T07:58:25.278Z,1024.18
2018-01-27T07:59:25.293Z,1024.24
2018-01-27T08:00:25.310Z,1024.23
2018-01-27T08:01:25.328Z,1024.26
2018-01-27T08:02:25.345Z,1024.25
2018-01-27T08:03:25.363Z,1024.27
2018-01-27T08:04:25.380Z,1024.28
2018-01-27T08:05:25.404Z,1024.32
2018-01-27T08:06:25.415Z,1024.37
2018-01-27T08:07:25.432Z,1024.39
2018-01-27T08:08:25.451Z,1024.38
2018-01-27T08:09:25.466Z,1024.37
2018-01-27T08:10:25.484Z,1024.37
2018-01-27T08:11:25.502Z,1024.41
2018-01-27T08:12:25.518Z,1024.39
2018-01-27T08:13:25.536Z,1024.38
2018-01-27T08:14:25.553Z,1024.38
2018-01-27T08:15:25.571Z,1024.33
2018-01-27T08:16:25.587Z,1024.37
2018-01-27T08:17:25.605Z,1024.34
2018-01-27T08:18:25.623Z,1024.33
2018-01-27T08:19:25.640Z,1024.35
2018-01-27T08:20:25.657Z,1024.37
2018-01-27T08:21:25.675Z,1024.34
2018-01-27T08:22:25.692Z,1024.37
2018-01-27T08:23:25.710Z,1024.36
2018-01-27T08:24:25.726Z,1024.40
2018-01-27T08:25:25.745Z,1024.41
2018-01-27T08:26:25.765Z,1024.42
2018-01-27T08:27:25.779Z,1024.43
2018-01-27T08:28:25.795Z,1024.41
2018-01-27T08:29:25.855Z,1024.38
2018-01-27T08:30:25.830Z,1024.38
2018-01-27T08:31:25.848Z,1024.36
2018-01-27T08:32:25.864Z,1024.38
2018-01-27T08:33:25.883Z,1024.45
2018-01-27T08:34:25.900Z,1024.47
2018-01-27T08:35:25.918Z,1024.48
2018-01-27T08:36:25.934Z,1024.54
2018-01-27T08:37:25.957Z,1024.52
2018-01-27T08:38:26.119Z,1024.47
2018-01-27T08:39:25.990Z,1024.49
2018-01-27T08:40:26.003Z,1024.50
2018-01-27T08:41:26.021Z,1024.47
2018-01-27T08:42:26.039Z,1024.53
2018-01-27T08:43:26.057Z,1024.51
2018-01-27T08:44:26.075Z,1024.47
2018-01-27T08:45:26.090Z,1024.45
2018-01-27T08:46:26.108Z,1024.38
2018-01-27T08:47:26.126Z,1024.36
2018-01-27T08:48:26.142Z,1024.35
2018-01-27T08:49:26.160Z,1024.38
2018-01-27T08:50:26.178Z,1024.38
2018-01-27T08:51:26.195Z,1024.42
2018-01-27T08:52:26.212Z,1024.41
2018-01-27T08:53:26.232Z,1024.49
2018-01-27T08:54:26.247Z,1024.43
2018-01-27T08:55:26.315Z,1024.42
2018-01-27T08:56:26.281Z,1024.36
2018-01-27T08:57:26.299Z,1024.37
2018-01-27T08:58:26.316Z,1024.38
2018-01-27T08:59:26.334Z,1024.39
2018-01-27T09:00:26.353Z,1024.44
2018-01-27T09:01:26.368Z,1024.46
2018-01-27T09:02:26.390Z,1024.46
2018-01-27T09:03:26.404Z,1024.50
2018-01-27T09:04:26.420Z,1024.54
2018-01-27T09:05:26.438Z,1024.56
2018-01-27T09:06:26.456Z,1024.58
2018-01-27T09:07:26.474Z,1024.63
2018-01-27T09:08:26.491Z,1024.64
2018-01-27T09:09:26.508Z,1024.65
2018-01-27T09:10:26.526Z,1024.68
2018-01-27T09:11:26.544Z,1024.68
2018-01-27T09:12:26.560Z,1024.67
2018-01-27T09:13:26.579Z,1024.71
2018-01-27T09:14:26.597Z,1024.67
2018-01-27T09:15:26.662Z,1024.74
2018-01-27T09:16:26.632Z,1024.73
2018-01-27T09:17:26.649Z,1024.71
2018-01-27T09:18:26.667Z,1024.79
2018-01-27T09:19:26.685Z,1024.79
2018-01-27T09:20:26.702Z,1024.78
2018-01-27T09:21:26.720Z,1024.81
2018-01-27T09:22:26.738Z,1024.83
2018-01-27T09:23:26.756Z,1024.77
2018-01-27T09:24:26.773Z,1024.79
2018-01-27T09:25:26.791Z,1024.66
2018-01-27T09:26:26.809Z,1024.68
2018-01-27T09:27:26.827Z,1024.63
2018-01-27T09:28:26.844Z,1024.57
2018-01-27T09:29:26.862Z,1024.60
2018-01-27T09:30:26.880Z,1024.53
2018-01-27T09:31:26.898Z,1024.56
2018-01-27T09:32:26.915Z,1024.52
2018-01-27T09:33:26.934Z,1024.49
2018-01-27T09:34:26.951Z,1024.42
2018-01-27T09:35:26.969Z,1024.42
2018-01-27T09:36:26.986Z,1024.40
2018-01-27T09:37:27.006Z,1024.44
2018-01-27T09:38:27.022Z,1024.43
2018-01-27T09:39:27.041Z,1024.45
2018-01-27T09:40:27.057Z,1024.43
2018-01-27T09:41:27.076Z,1024.49
2018-01-27T09:42:27.093Z,1024.48
2018-01-27T09:43:27.113Z,1024.52
2018-01-27T09:44:27.279Z,1024.53
2018-01-27T09:45:27.147Z,1024.52
2018-01-27T09:46:27.165Z,1024.51
2018-01-27T09:47:27.185Z,1024.50
2018-01-27T09:48:27.200Z,1024.52
2018-01-27T09:49:27.219Z,1024.50
2018-01-27T09:50:27.236Z,1024.55
2018-01-27T09:51:27.255Z,1024.51
2018-01-27T09:52:27.271Z,1024.47
2018-01-27T09:53:27.290Z,1024.49
2018-01-27T09:54:27.308Z,1024.54
2018-01-27T09:55:27.327Z,1024.55
2018-01-27T09:56:27.345Z,1024.54
2018-01-27T09:57:27.363Z,1024.54
2018-01-27T09:58:27.381Z,1024.49
2018-01-27T09:59:27.400Z,1024.54
2018-01-27T10:00:27.420Z,1024.48
2018-01-27T10:01:27.436Z,1024.52
2018-01-27T10:02:27.454Z,1024.58
2018-01-27T10:03:27.473Z,1024.67
2018-01-27T10:04:27.491Z,1024.68
2018-01-27T10:05:27.514Z,1024.64
2018-01-27T10:06:27.528Z,1024.66
2018-01-27T10:07:27.546Z,1024.68
2018-01-27T10:08:27.563Z,1024.55
2018-01-27T10:09:27.581Z,1024.60
2018-01-27T10:10:27.601Z,1024.57
2018-01-27T10:11:27.619Z,1024.55
2018-01-27T10:12:27.636Z,1024.52
2018-01-27T10:13:27.655Z,1024.48
2018-01-27T10:14:27.673Z,1024.45
2018-01-27T10:15:27.692Z,1024.46
2018-01-27T10:16:27.710Z,1024.48
2018-01-27T10:17:27.729Z,1024.54
2018-01-27T10:18:27.750Z,1024.54
2018-01-27T10:19:27.767Z,1024.57
2018-01-27T10:20:27.784Z,1024.55
2018-01-27T10:21:27.803Z,1024.48
2018-01-27T10:22:27.823Z,1024.54
2018-01-27T10:23:27.843Z,1024.53
2018-01-27T10:24:27.859Z,1024.54
2018-01-27T10:25:27.877Z,1024.52
2018-01-27T10:26:27.897Z,1024.52
2018-01-27T10:27:27.917Z,1024.57
2018-01-27T10:28:27.934Z,1024.55
2018-01-27T10:29:27.969Z,1024.56
2018-01-27T10:30:27.972Z,1024.52
2018-01-27T10:31:27.991Z,1024.51
2018-01-27T10:32:28.010Z,1024.48
2018-01-27T10:33:28.037Z,1024.54
2018-01-27T10:34:28.048Z,1024.49
2018-01-27T10:35:28.067Z,1024.50
2018-01-27T10:36:28.085Z,1024.56
2018-01-27T10:37:28.103Z,1024.58
2018-01-27T10:38:28.122Z,1024.62
2018-01-27T10:39:28.142Z,1024.61
2018-01-27T10:40:28.207Z,1024.60
2018-01-27T10:41:28.178Z,1024.60
2018-01-27T10:42:28.196Z,1024.69
2018-01-27T10:43:28.215Z,1024.68
2018-01-27T10:44:28.233Z,1024.70
2018-01-27T10:45:28.251Z,1024.72
2018-01-27T10:46:28.270Z,1024.71
2018-01-27T10:47:28.890Z,1024.68
2018-01-27T10:48:28.306Z,1024.71
2018-01-27T10:49:28.325Z,1024.65
2018-01-27T10:50:28.344Z,1024.72
2018-01-27T10:51:28.362Z,1024.63
2018-01-27T10:52:28.379Z,1024.63
2018-01-27T10:53:28.398Z,1024.64
2018-01-27T10:54:28.415Z,1024.67
2018-01-27T10:55:28.435Z,1024.65
2018-01-27T10:56:28.452Z,1024.68
2018-01-27T10:57:28.471Z,1024.76
2018-01-27T10:58:28.490Z,1024.77
2018-01-27T10:59:28.508Z,1024.79
2018-01-27T11:00:28.876Z,1024.76
2018-01-27T11:01:28.551Z,1024.79
2018-01-27T11:02:28.561Z,1024.80
2018-01-27T11:03:28.582Z,1024.82
2018-01-27T11:04:28.598Z,1024.80
2018-01-27T11:05:28.616Z,1024.78
2018-01-27T11:06:28.646Z,1024.77
2018-01-27T11:07:28.654Z,1024.78
2018-01-27T11:08:28.671Z,1024.79
2018-01-27T11:09:28.690Z,1024.75
2018-01-27T11:10:28.709Z,1024.79
2018-01-27T11:11:28.727Z,1024.74
2018-01-27T11:12:28.745Z,1024.77
2018-01-27T11:13:28.763Z,1024.77
2018-01-27T11:14:28.837Z,1024.77
2018-01-27T11:15:28.799Z,1024.78
2018-01-27T11:16:28.818Z,1024.77
2018-01-27T11:17:28.839Z,1024.79
2018-01-27T11:18:28.854Z,1024.77
2018-01-27T11:19:28.872Z,1024.78
2018-01-27T11:20:28.890Z,1024.78
2018-01-27T11:21:28.908Z,1024.79
2018-01-27T11:22:28.927Z,1024.75
2018-01-27T11:23:29.097Z,1024.77
2018-01-27T11:24:28.962Z,1024.82
2018-01-27T11:25:28.981Z,1024.82
2018-01-27T11:26:28.999Z,1024.88
2018-01-27T11:27:29.018Z,1024.79
2018-01-27T11:28:29.037Z,1024.84
2018-01-27T11:29:29.053Z,1024.85
2018-01-27T11:30:29.071Z,1024.86
2018-01-27T11:31:29.090Z,1024.83
2018-01-27T11:32:29.107Z,1024.80
2018-01-27T11:33:29.125Z,1024.81
2018-01-27T11:34:29.143Z,1024.78
2018-01-27T11:35:29.161Z,1024.77
2018-01-27T11:37:29.198Z,1024.75
2018-01-27T11:38:29.218Z,1024.71
2018-01-27T11:39:29.236Z,1024.70
2018-01-27T11:40:29.251Z,1024.74
2018-01-27T11:41:29.269Z,1024.73
2018-01-27T11:42:29.288Z,1024.72
2018-01-27T11:43:29.306Z,1024.70
2018-01-27T11:44:29.324Z,1024.70
2018-01-27T11:45:29.342Z,1024.76
2018-01-27T11:46:29.410Z,1024.75
2018-01-27T11:47:29.379Z,1024.72
2018-01-27T11:48:29.396Z,1024.70
2018-01-27T11:49:29.414Z,1024.69
2018-01-27T11:50:29.432Z,1024.69
2018-01-27T11:51:29.451Z,1024.66
2018-01-27T11:52:29.468Z,1024.63
2018-01-27T11:53:29.486Z,1024.67
2018-01-27T11:54:29.519Z,1024.65
2018-01-27T11:55:29.523Z,1024.65
2018-01-27T11:56:29.691Z,1024.62
2018-01-27T11:57:29.562Z,1024.61
2018-01-27T11:58:29.576Z,1024.62
2018-01-27T11:59:29.595Z,1024.56
2018-01-27T12:00:29.612Z,1024.54
2018-01-27T12:01:29.631Z,1024.57
2018-01-27T12:02:29.649Z,1024.49
2018-01-27T12:03:29.667Z,1024.44
2018-01-27T12:04:29.685Z,1024.43
2018-01-27T12:05:29.702Z,1024.39
2018-01-27T12:06:29.721Z,1024.38